Terminal Aerodrome Forecast
Issued by NWS Cleveland, OH

Home | Current Version | Previous Version | Text Only | Print | Product List | Glossary On
Versions: 1 2 3 4 5 6 7 8 9 10 11 12 13 14 15 16 17 18 19 20 21 22 23 24 25 26
280
FTUS41 KCLE 270530
TAFCLE
TAF
KCLE 270530Z 2706/2812 14004KT P6SM FEW100 BKN250
     FM271900 02005KT P6SM FEW045 BKN250
     FM280400 17003KT P6SM VCSH SCT060 OVC100=

USA.gov is the U.S. government's official web portal to all federal, state and local government web resources and services.